Ana Sayfa
METAR-TAF:

METAR-TAF

Havaalanları :

Sevhac, Mısır

Enlem: 26-20-25N, Boylam: 31-44-20E, yükseklik: 70 m

Güncel hava durumu gözlemi

Rapor saat 09:00 UTC de 50 dakika önce yapıldı.
Rüzgar kuzey/kuzeybatıdan 8 kt
Sıcaklık 40°C
Nem 11%
Basınç 1005 hPa
Görüş mesafesi 10 km veya daha fazla
1500 m altında bulut yok ve kümülonimbus yok

METAR: HESG 250900Z 34008KT CAVOK 40/04 Q1005 NOSIG

Saat: 11:50 (09:50 UTC)

Tahmin

Rapor saat 05:00 UTC de 4 saat ve 50 dakika önce yapıldı.
Ayın 25'si saat 06 UTC'den ayın 26'si saat 12 UTC'ye kadar geçerli Tahmin
Rüzgar doğudan 6 kt
Görüş mesafesi 10 km veya daha fazla
1500 m altında bulut yok ve kümülonimbus yok

TAF: HESG 250500Z 2506/2612 08006KT CAVOK

4.000'den fazla havaalanı için hava durumu gözlemleri ve tahminleri (METAR ve TAF raporları).

Kullanılabilir istasyonlar harita üzerinde sarı ve kırmızı noktalarla gösterilir.

İstasyonun adını görmek için fareyi noktanın üzerinde gezdirin.

Sonrasında hava gözlem ve tahminlerini görmek için tıklayın.

Haritayı değiştirmek için: yaklaştırmak için siyah artı işaretli yeşil düğmeye ve uzaklaştırmak için de eksi işaretli düğmeye hızla tıklayın; bitişik haritalar için yeşil okları kullanın.


METAR-TAF: